createdAt,value
2019-04-25T03:30:50.148Z,4.40
2019-04-25T03:31:50.234Z,7.40
2019-04-25T03:32:51.670Z,6.90
2019-04-25T03:33:50.239Z,7.30
2019-04-25T03:34:50.132Z,6.80
2019-04-25T03:36:07.769Z,6.90
2019-04-25T03:36:50.224Z,7.20
2019-04-25T03:37:50.267Z,6.20
2019-04-25T03:38:50.333Z,5.80
2019-04-25T03:39:50.303Z,6.10
2019-04-25T03:40:50.275Z,6.00
2019-04-25T03:41:50.259Z,5.90
2019-04-25T03:42:50.318Z,6.10
2019-04-25T03:43:50.335Z,5.80
2019-04-25T03:44:51.439Z,5.80
2019-04-25T03:45:50.335Z,5.70
2019-04-25T03:46:50.284Z,5.60
2019-04-25T03:47:50.347Z,5.70
2019-04-25T03:48:50.433Z,5.20
2019-04-25T03:49:50.610Z,5.40
2019-04-25T03:50:50.378Z,5.50
2019-04-25T03:51:51.139Z,5.00
2019-04-25T03:52:51.043Z,4.90
2019-04-25T03:53:50.502Z,5.00
2019-04-25T03:54:50.478Z,4.80
2019-04-25T03:55:50.544Z,4.50
2019-04-25T03:56:54.368Z,4.30
2019-04-25T03:57:54.250Z,4.70
2019-04-25T03:58:59.383Z,4.30
2019-04-25T03:59:53.643Z,3.80
2019-04-25T04:00:54.448Z,4.20
2019-04-25T04:01:53.786Z,4.10
2019-04-25T04:05:34.543Z,4.20
2019-04-25T04:06:34.001Z,3.80
2019-04-25T04:07:33.878Z,3.90
2019-04-25T04:08:34.305Z,3.60
2019-04-25T04:09:33.891Z,4.00
2019-04-25T04:10:33.878Z,3.90
2019-04-25T04:11:33.860Z,3.70
2019-04-25T04:12:35.478Z,3.70
2019-04-25T04:13:55.681Z,3.80
2019-04-25T04:14:33.957Z,3.50
2019-04-25T04:15:34.798Z,3.70
2019-04-25T04:16:34.548Z,3.50
2019-04-25T04:17:35.307Z,3.50
2019-04-25T04:18:34.319Z,3.30
2019-04-25T04:19:34.718Z,3.40
2019-04-25T04:20:34.633Z,3.50
2019-04-25T04:21:43.129Z,3.30
2019-04-25T04:22:44.775Z,3.60
2019-04-25T04:24:37.531Z,3.30
2019-04-25T04:25:37.460Z,3.30
2019-04-25T04:26:36.356Z,3.50
2019-04-25T04:27:36.870Z,3.20
2019-04-25T04:30:17.303Z,3.70
2019-04-25T04:31:17.632Z,3.00
2019-04-25T04:32:17.450Z,3.30
2019-04-25T04:33:29.482Z,3.50
2019-04-25T04:34:17.345Z,3.20
2019-04-25T04:47:31.326Z,3.30
2019-04-25T04:48:31.357Z,3.10
2019-04-25T04:49:31.388Z,3.10
2019-04-25T04:50:31.383Z,3.40
2019-04-25T04:51:31.368Z,2.80
2019-04-25T04:52:35.755Z,2.90
2019-04-25T05:04:39.277Z,2.90
2019-04-25T05:05:44.460Z,2.50
2019-04-25T05:06:38.931Z,2.80
2019-04-25T05:13:24.920Z,2.40
2019-04-25T05:14:26.540Z,3.00
2019-04-25T05:15:24.757Z,2.60
2019-04-25T05:16:24.333Z,2.80
2019-04-25T05:17:25.416Z,2.80
2019-04-25T05:18:34.568Z,2.80
2019-04-25T05:19:24.396Z,2.60
2019-04-25T05:20:24.440Z,2.90
2019-04-25T05:21:25.254Z,2.50
2019-04-25T05:22:24.689Z,2.50
2019-04-25T05:23:24.893Z,2.90
2019-04-25T05:24:26.349Z,2.60
2019-04-25T05:25:25.592Z,2.70
2019-04-25T05:26:25.031Z,2.40
2019-04-25T05:27:46.317Z,2.40
2019-04-25T05:28:30.654Z,2.70
2019-04-25T05:29:27.819Z,2.50
2019-04-25T05:30:28.598Z,2.40
2019-04-25T05:31:32.194Z,2.70
2019-04-25T05:32:29.283Z,2.50
2019-04-25T05:39:07.793Z,2.60
2019-04-25T05:40:07.764Z,2.20
2019-04-25T05:41:07.855Z,2.30
2019-04-25T05:42:07.833Z,2.80
2019-04-25T05:43:08.413Z,2.70
2019-04-25T05:44:08.412Z,2.70
2019-04-25T05:45:07.878Z,2.60
2019-04-25T05:46:07.947Z,2.50
2019-04-25T05:48:15.233Z,2.40
2019-04-25T05:49:13.728Z,2.60
2019-04-25T05:50:08.757Z,2.50
2019-04-25T05:51:08.945Z,2.60
2019-04-25T05:52:09.359Z,2.50
2019-04-25T05:53:09.269Z,2.30
2019-04-25T05:54:09.212Z,2.30
2019-04-25T05:55:08.760Z,2.40
2019-04-25T05:56:10.658Z,2.30
2019-04-25T05:57:08.307Z,2.20
2019-04-25T05:58:08.456Z,2.40
2019-04-25T05:59:08.146Z,2.60
2019-04-25T06:00:09.598Z,2.60
2019-04-25T06:01:08.602Z,2.40
2019-04-25T06:02:08.208Z,2.40
2019-04-25T06:03:09.097Z,2.40
2019-04-25T06:04:09.332Z,2.50
2019-04-25T06:05:08.518Z,2.50
2019-04-25T06:06:09.944Z,2.10
2019-04-25T06:07:09.803Z,2.50
2019-04-25T06:08:08.980Z,2.40
2019-04-25T06:09:08.777Z,2.40
2019-04-25T06:10:09.050Z,2.60
2019-04-25T06:11:08.867Z,2.50
2019-04-25T06:12:09.116Z,2.40
2019-04-25T06:13:08.643Z,2.40
2019-04-25T06:14:09.489Z,2.50
2019-04-25T06:15:08.939Z,2.20
2019-04-25T06:16:10.323Z,2.30
2019-04-25T06:17:07.950Z,2.30
2019-04-25T06:18:14.015Z,1.90
2019-04-25T06:19:14.154Z,2.20
2019-04-25T06:20:10.085Z,1.90
2019-04-25T06:21:07.992Z,2.10
2019-04-25T06:22:09.521Z,2.10
2019-04-25T06:23:08.994Z,2.00
2019-04-25T06:24:08.078Z,2.00
2019-04-25T06:25:12.349Z,2.20
2019-04-25T06:26:19.259Z,2.60
2019-04-25T06:27:08.743Z,1.80
2019-04-25T06:28:07.968Z,1.90
2019-04-25T06:29:08.104Z,2.00
2019-04-25T06:30:08.070Z,1.90
2019-04-25T06:31:10.302Z,2.30
2019-04-25T06:32:08.670Z,1.90
2019-04-25T06:33:08.032Z,2.20
2019-04-25T06:34:08.225Z,2.30
2019-04-25T06:35:08.199Z,2.00
2019-04-25T06:36:08.185Z,1.80
2019-04-25T06:37:08.307Z,2.00
2019-04-25T06:38:08.153Z,1.70
2019-04-25T06:39:09.183Z,1.90
2019-04-25T06:40:08.147Z,1.80
2019-04-25T06:41:08.188Z,1.70
2019-04-25T06:42:08.375Z,1.60
2019-04-25T06:43:08.130Z,1.80
2019-04-25T06:44:08.138Z,1.80
2019-04-25T06:45:08.372Z,1.50
2019-04-25T06:46:08.486Z,1.70
2019-04-25T06:47:08.330Z,1.70
2019-04-25T06:48:08.355Z,1.60
2019-04-25T06:49:08.403Z,1.40
2019-04-25T06:50:08.219Z,1.60
2019-04-25T06:51:08.504Z,1.80
2019-04-25T06:52:10.369Z,1.50
2019-04-25T06:53:08.465Z,1.50
2019-04-25T06:54:17.533Z,1.40
2019-04-25T06:55:08.960Z,1.70
2019-04-25T06:56:08.745Z,1.50
2019-04-25T06:57:09.356Z,1.60
2019-04-25T06:58:12.060Z,1.50
2019-04-25T06:59:08.457Z,2.00
2019-04-25T07:00:08.743Z,1.80
2019-04-25T07:01:08.516Z,1.40
2019-04-25T07:02:08.566Z,1.50
2019-04-25T07:03:08.816Z,1.50
2019-04-25T07:04:09.338Z,1.80
2019-04-25T07:05:08.527Z,1.50
2019-04-25T07:06:08.975Z,1.50
2019-04-25T07:07:12.449Z,1.60
2019-04-25T07:08:08.843Z,1.50
2019-04-25T07:09:08.935Z,1.70
2019-04-25T07:10:10.742Z,1.70
2019-04-25T07:11:08.841Z,1.80
2019-04-25T07:12:08.871Z,1.50
2019-04-25T07:13:09.057Z,1.70
2019-04-25T07:14:08.958Z,1.60
2019-04-25T07:15:09.793Z,1.40
2019-04-25T07:16:09.335Z,1.50
2019-04-25T07:17:11.368Z,1.60
2019-04-25T07:18:16.289Z,1.60
2019-04-25T07:19:09.089Z,1.50
2019-04-25T07:20:09.010Z,1.40
2019-04-25T07:21:10.343Z,1.50
2019-04-25T07:22:09.502Z,1.60
2019-04-25T07:23:09.573Z,1.70
2019-04-25T07:24:09.512Z,1.30
2019-04-25T07:25:09.566Z,1.40
2019-04-25T07:26:10.425Z,1.60
2019-04-25T07:27:09.012Z,1.90
2019-04-25T07:28:16.415Z,1.40
2019-04-25T07:29:09.294Z,1.70
2019-04-25T07:30:10.594Z,1.60
2019-04-25T07:31:09.127Z,1.40
2019-04-25T07:32:09.305Z,1.50
2019-04-25T07:33:10.327Z,1.70
2019-04-25T07:34:09.442Z,1.60
2019-04-25T07:35:09.656Z,1.60
2019-04-25T07:36:13.902Z,1.40
2019-04-25T07:37:09.095Z,1.40
2019-04-25T07:38:10.027Z,1.70
2019-04-25T07:39:10.616Z,1.70
2019-04-25T07:40:09.614Z,1.50
2019-04-25T07:41:10.296Z,1.80
2019-04-25T07:42:09.344Z,1.40
2019-04-25T07:43:09.362Z,1.70
2019-04-25T07:44:09.474Z,1.60
2019-04-25T07:45:09.598Z,1.60
2019-04-25T07:46:09.762Z,1.60
2019-04-25T07:47:09.695Z,1.50
2019-04-25T07:48:11.561Z,1.50
2019-04-25T07:49:09.533Z,1.80
2019-04-25T07:50:09.528Z,1.60
2019-04-25T07:51:09.697Z,1.50
2019-04-25T07:52:11.477Z,1.40
2019-04-25T07:53:09.439Z,1.90
2019-04-25T07:54:09.740Z,1.60
2019-04-25T07:55:11.621Z,1.60
2019-04-25T07:56:09.525Z,1.40
2019-04-25T07:57:10.186Z,1.50
2019-04-25T07:58:09.874Z,1.60
2019-04-25T07:59:10.465Z,1.60
2019-04-25T08:00:10.276Z,1.30
2019-04-25T08:01:13.824Z,1.50
2019-04-25T08:02:09.699Z,1.50
2019-04-25T08:03:15.324Z,1.50
2019-04-25T08:04:09.801Z,1.50
2019-04-25T08:05:10.105Z,1.40
2019-04-25T08:06:09.758Z,1.30
2019-04-25T08:07:09.742Z,1.60
2019-04-25T08:08:09.731Z,1.50
2019-04-25T08:09:09.946Z,1.60
2019-04-25T08:10:13.918Z,1.60
2019-04-25T08:11:10.602Z,1.50
2019-04-25T08:12:10.249Z,1.30
2019-04-25T08:13:10.700Z,1.50
2019-04-25T08:14:09.964Z,1.60
2019-04-25T08:15:11.042Z,1.60
2019-04-25T08:16:10.374Z,1.80
2019-04-25T08:17:10.424Z,1.80
2019-04-25T08:18:09.936Z,1.70
2019-04-25T08:19:10.253Z,1.50
2019-04-25T08:20:10.172Z,1.50
2019-04-25T08:21:11.783Z,1.30
2019-04-25T08:22:10.339Z,1.40
2019-04-25T08:23:10.647Z,1.30
2019-04-25T08:24:10.035Z,1.50
2019-04-25T08:25:14.279Z,1.30
2019-04-25T08:26:10.123Z,1.20
2019-04-25T08:27:13.351Z,1.70
2019-04-25T08:28:10.154Z,1.60
2019-04-25T08:29:13.318Z,1.50
2019-04-25T08:30:10.902Z,1.70
2019-04-25T08:31:13.440Z,1.60
2019-04-25T08:32:11.445Z,1.70
2019-04-25T08:33:10.653Z,1.60
2019-04-25T08:34:10.771Z,1.50
2019-04-25T08:35:11.538Z,1.60
2019-04-25T08:36:10.654Z,1.70
2019-04-25T08:37:18.098Z,1.80
2019-04-25T08:38:10.665Z,1.50
2019-04-25T08:39:10.690Z,1.30
2019-04-25T08:40:11.046Z,1.40
2019-04-25T08:41:10.546Z,1.60
2019-04-25T08:42:10.665Z,1.60
2019-04-25T08:43:10.659Z,1.70
2019-04-25T08:44:11.115Z,1.30
2019-04-25T08:45:10.327Z,1.50
2019-04-25T08:46:10.745Z,1.40
2019-04-25T08:47:11.061Z,1.40
2019-04-25T08:48:11.261Z,1.60
2019-04-25T08:49:10.553Z,1.30
2019-04-25T08:50:24.611Z,1.70
2019-04-25T08:51:14.657Z,1.60
2019-04-25T08:52:10.857Z,1.50
2019-04-25T08:53:10.769Z,1.50
2019-04-25T08:54:11.003Z,1.30
2019-04-25T08:55:11.050Z,1.50
2019-04-25T08:56:10.964Z,1.60
2019-04-25T08:57:10.666Z,1.50
2019-04-25T08:58:11.087Z,1.30
2019-04-25T08:59:10.928Z,1.50
2019-04-25T09:00:10.671Z,1.60
2019-04-25T09:01:11.436Z,1.50
2019-04-25T09:02:10.893Z,1.40
2019-04-25T09:03:11.077Z,1.40
2019-04-25T09:04:11.006Z,1.50
2019-04-25T09:05:13.853Z,1.20
2019-04-25T09:09:35.019Z,1.40
2019-04-25T09:10:35.349Z,1.50
2019-04-25T09:11:33.602Z,1.30
2019-04-25T09:12:35.302Z,1.30
2019-04-25T09:13:35.403Z,1.60
2019-04-25T09:14:34.909Z,1.40
2019-04-25T09:15:35.631Z,1.50
2019-04-25T09:16:34.696Z,1.40
2019-04-25T09:17:35.500Z,1.30
2019-04-25T09:18:35.722Z,1.60
2019-04-25T09:19:35.984Z,1.20
2019-04-25T09:20:37.996Z,1.30
2019-04-25T09:21:36.496Z,1.40
2019-04-25T09:22:35.261Z,1.40
2019-04-25T09:23:33.389Z,1.30
2019-04-25T09:24:36.262Z,1.20
2019-04-25T09:25:35.410Z,1.30
2019-04-25T09:26:34.896Z,1.30
2019-04-25T09:27:37.921Z,1.60
2019-04-25T09:28:41.887Z,1.40
2019-04-25T09:29:36.623Z,1.30
2019-04-25T09:30:36.815Z,1.60
2019-04-25T09:31:37.069Z,1.30
2019-04-25T09:32:35.521Z,1.50
2019-04-25T09:33:35.120Z,1.40
2019-04-25T09:34:33.581Z,1.30
2019-04-25T09:35:33.518Z,1.30
2019-04-25T09:36:34.271Z,1.30
2019-04-25T09:37:36.690Z,1.60
2019-04-25T09:38:33.890Z,1.30
2019-04-25T09:39:36.838Z,1.30
2019-04-25T09:40:34.077Z,1.40
2019-04-25T09:41:33.630Z,1.30
2019-04-25T09:42:33.771Z,1.50
2019-04-25T09:43:37.819Z,1.50
2019-04-25T09:44:32.520Z,1.40
2019-04-25T09:45:33.435Z,1.40
2019-04-25T09:46:34.076Z,1.50
2019-04-25T09:47:37.382Z,1.40
2019-04-25T09:48:35.396Z,1.50
2019-04-25T09:49:35.520Z,1.50
2019-04-25T09:50:35.526Z,1.40
2019-04-25T09:51:33.562Z,1.60
2019-04-25T09:52:33.952Z,1.30
2019-04-25T09:53:43.730Z,1.30
2019-04-25T09:54:39.917Z,1.40
2019-04-25T09:55:34.014Z,1.20
2019-04-25T09:56:36.657Z,1.40
2019-04-25T09:57:36.235Z,1.30
2019-04-25T09:58:36.456Z,1.30
2019-04-25T09:59:35.261Z,1.40
2019-04-25T10:00:34.435Z,1.30
2019-04-25T10:01:36.372Z,1.40
2019-04-25T10:02:40.209Z,1.40
2019-04-25T10:03:36.649Z,1.40
2019-04-25T10:04:34.656Z,1.30
2019-04-25T10:05:34.124Z,1.30
2019-04-25T10:06:37.263Z,1.30
2019-04-25T10:07:32.927Z,1.40
2019-04-25T10:08:38.696Z,1.30
2019-04-25T10:09:33.773Z,1.50
2019-04-25T10:10:33.309Z,1.20
2019-04-25T10:11:33.547Z,1.40
2019-04-25T10:12:34.861Z,1.30
2019-04-25T10:13:33.700Z,1.30
2019-04-25T10:14:34.005Z,1.30
2019-04-25T10:15:34.014Z,1.50
2019-04-25T10:16:35.504Z,1.50
2019-04-25T10:17:34.382Z,1.50
2019-04-25T10:18:43.274Z,1.30
2019-04-25T10:19:34.488Z,1.50
2019-04-25T10:20:33.607Z,1.40
2019-04-25T10:21:34.302Z,1.40
2019-04-25T10:22:33.911Z,1.40
2019-04-25T10:23:34.383Z,1.40
2019-04-25T10:24:37.389Z,1.50
2019-04-25T10:28:28.916Z,1.70
2019-04-25T10:29:24.286Z,1.30
2019-04-25T10:30:25.982Z,1.30
2019-04-25T10:31:25.160Z,1.10
2019-04-25T10:32:23.715Z,1.40
2019-04-25T10:33:24.192Z,1.40
2019-04-25T10:34:21.773Z,1.50
2019-04-25T10:35:21.813Z,1.30
2019-04-25T10:36:22.962Z,1.30
2019-04-25T10:37:22.348Z,1.20
2019-04-25T10:38:25.363Z,1.50
2019-04-25T10:39:22.835Z,1.30
2019-04-25T10:40:25.007Z,1.40
2019-04-25T10:41:24.321Z,1.40
2019-04-25T10:42:21.581Z,1.50
2019-04-25T10:43:21.747Z,1.50
2019-04-25T10:44:21.326Z,1.30
2019-04-25T10:45:24.265Z,1.30
2019-04-25T10:46:21.281Z,1.30
2019-04-25T10:47:21.363Z,1.30
2019-04-25T10:48:21.337Z,1.30
2019-04-25T10:49:23.408Z,1.30
2019-04-25T10:50:21.424Z,1.10
2019-04-25T10:51:21.452Z,1.30
2019-04-25T10:52:23.047Z,1.40
2019-04-25T10:53:23.201Z,1.30
2019-04-25T10:54:21.483Z,1.40
2019-04-25T10:55:23.281Z,1.40
2019-04-25T10:56:21.533Z,1.30
2019-04-25T10:57:21.646Z,1.20
2019-04-25T10:58:21.618Z,1.30
2019-04-25T10:59:21.557Z,1.20
2019-04-25T11:00:21.592Z,1.20
2019-04-25T11:01:21.589Z,1.20
2019-04-25T11:02:23.470Z,1.50
2019-04-25T11:03:21.634Z,1.20
2019-04-25T11:04:21.653Z,1.40
2019-04-25T11:05:21.700Z,1.20
2019-04-25T11:06:23.223Z,1.40
2019-04-25T11:07:23.379Z,1.30
2019-04-25T11:08:21.760Z,1.40
2019-04-25T11:09:21.773Z,1.30
2019-04-25T11:10:23.478Z,1.50
2019-04-25T11:11:21.835Z,1.40
2019-04-25T11:12:23.357Z,1.20
2019-04-25T11:13:21.868Z,1.60
2019-04-25T11:14:23.781Z,1.50
2019-04-25T11:15:23.258Z,1.10
2019-04-25T11:16:21.979Z,1.30
2019-04-25T11:17:24.108Z,1.20
2019-04-25T11:18:21.942Z,1.40
2019-04-25T11:19:23.768Z,1.10
2019-04-25T11:20:23.193Z,1.20
2019-04-25T11:21:22.030Z,1.10
2019-04-25T11:22:23.889Z,1.10
2019-04-25T11:23:22.046Z,1.30
2019-04-25T11:24:23.528Z,1.10
2019-04-25T11:25:23.933Z,1.20
2019-04-25T11:26:22.159Z,1.20
2019-04-25T11:27:23.776Z,1.20
2019-04-25T11:28:23.449Z,1.20
2019-04-25T11:29:23.798Z,1.20
2019-04-25T11:30:22.193Z,1.20
2019-04-25T11:31:23.500Z,1.30
2019-04-25T11:32:23.730Z,1.20
2019-04-25T11:33:23.009Z,1.20
2019-04-25T11:34:22.870Z,1.10
2019-04-25T11:35:24.045Z,1.20
2019-04-25T11:36:22.389Z,1.30
2019-04-25T11:37:23.889Z,1.30
2019-04-25T11:38:23.707Z,1.30
2019-04-25T11:39:23.854Z,1.20
2019-04-25T11:40:23.411Z,1.30
2019-04-25T11:41:24.164Z,0.80
2019-04-25T11:42:23.315Z,1.20
2019-04-25T11:43:22.508Z,1.20
2019-04-25T11:44:22.544Z,1.10
2019-04-25T11:45:22.528Z,1.30
2019-04-25T11:46:24.107Z,1.10
2019-04-25T11:47:24.188Z,1.10
2019-04-25T11:48:23.845Z,1.00
2019-04-25T11:49:23.820Z,0.90
2019-04-25T11:50:22.651Z,0.90
2019-04-25T11:51:24.008Z,1.20
2019-04-25T11:52:28.311Z,1.00
2019-04-25T11:53:24.783Z,1.00
2019-04-25T11:54:24.159Z,1.20
2019-04-25T11:55:23.915Z,1.10
2019-04-25T11:56:24.156Z,1.10
2019-04-25T11:57:23.331Z,1.20
2019-04-25T11:58:23.580Z,1.40
2019-04-25T11:59:23.509Z,1.00
2019-04-25T12:00:24.434Z,1.20
2019-04-25T12:01:24.330Z,1.70
2019-04-25T12:02:23.948Z,2.00
2019-04-25T12:03:23.227Z,1.10
2019-04-25T12:04:23.929Z,1.20
2019-04-25T12:05:23.482Z,1.20
2019-04-25T12:06:24.299Z,1.50
2019-04-25T12:07:23.712Z,1.20
2019-04-25T12:08:24.270Z,1.30
2019-04-25T12:09:24.130Z,1.10
2019-04-25T12:10:24.224Z,1.10
2019-04-25T12:11:23.607Z,1.00
2019-04-25T12:12:23.579Z,1.10
2019-04-25T12:13:24.253Z,1.10
2019-04-25T12:14:23.547Z,1.20
2019-04-25T12:15:24.075Z,0.90
2019-04-25T12:16:24.624Z,1.00
2019-04-25T12:17:23.486Z,1.00
2019-04-25T12:18:23.247Z,1.10
2019-04-25T12:19:33.094Z,1.30
2019-04-25T12:20:23.265Z,1.10
2019-04-25T12:21:23.934Z,1.10
2019-04-25T12:22:23.850Z,1.00
2019-04-25T12:23:23.439Z,1.00
2019-04-25T12:24:23.892Z,1.20
2019-04-25T12:25:23.761Z,1.10
2019-04-25T12:26:25.890Z,1.20
2019-04-25T12:27:23.528Z,0.80
2019-04-25T12:28:23.604Z,0.80
2019-04-25T12:29:24.428Z,1.00
2019-04-25T12:30:36.781Z,1.00
2019-04-25T12:31:23.825Z,1.00
2019-04-25T12:32:23.609Z,1.30
2019-04-25T12:33:23.939Z,0.90
2019-04-25T12:34:24.293Z,1.00
2019-04-25T12:35:24.190Z,0.90
2019-04-25T12:36:24.065Z,1.00
2019-04-25T12:37:24.983Z,1.00
2019-04-25T12:38:24.568Z,1.30
2019-04-25T12:39:24.253Z,1.20
2019-04-25T12:40:24.247Z,0.90
2019-04-25T12:41:23.733Z,1.00
2019-04-25T12:42:24.229Z,0.90
2019-04-25T12:43:23.991Z,1.10
2019-04-25T12:44:23.842Z,1.30
2019-04-25T12:45:24.234Z,0.90
2019-04-25T12:46:23.852Z,1.10
2019-04-25T12:47:24.052Z,1.10
2019-04-25T12:48:23.960Z,1.30
2019-04-25T12:49:24.223Z,1.40
2019-04-25T12:50:24.714Z,1.30
2019-04-25T12:51:23.994Z,1.00
2019-04-25T12:52:24.627Z,0.90
2019-04-25T12:53:24.130Z,1.30
2019-04-25T12:54:24.093Z,1.10
2019-04-25T12:55:24.115Z,1.10
2019-04-25T12:56:24.802Z,1.00
2019-04-25T12:57:24.160Z,0.90
2019-04-25T12:58:24.147Z,0.90
2019-04-25T12:59:24.228Z,0.90
2019-04-25T13:00:24.329Z,1.00
2019-04-25T13:01:26.100Z,1.10
2019-04-25T13:02:24.257Z,1.00
2019-04-25T13:03:24.267Z,0.90
2019-04-25T13:04:24.319Z,0.80
2019-04-25T13:05:24.520Z,1.00
2019-04-25T13:06:24.406Z,1.00
2019-04-25T13:07:24.373Z,0.90
2019-04-25T13:08:24.595Z,0.90
2019-04-25T13:09:24.490Z,0.80
2019-04-25T13:10:24.610Z,1.00
2019-04-25T13:11:24.552Z,0.90
2019-04-25T13:12:24.775Z,1.10
2019-04-25T13:13:24.474Z,1.10
2019-04-25T13:14:25.121Z,1.00
2019-04-25T13:15:26.635Z,1.00
2019-04-25T13:16:24.613Z,0.90
2019-04-25T13:17:24.574Z,0.90
2019-04-25T13:18:24.578Z,0.90
2019-04-25T13:19:26.448Z,1.00
2019-04-25T13:20:24.633Z,0.90
2019-04-25T13:21:24.781Z,1.00
2019-04-25T13:22:24.769Z,0.90
2019-04-25T13:23:24.710Z,0.80
2019-04-25T13:24:24.748Z,0.80
2019-04-25T13:25:24.813Z,1.10
2019-04-25T13:26:24.946Z,1.00
2019-04-25T13:27:24.837Z,0.90
2019-04-25T13:28:24.887Z,1.20
2019-04-25T13:29:24.880Z,1.20
2019-04-25T13:30:24.867Z,0.90
2019-04-25T13:31:24.864Z,0.90
2019-04-25T13:32:24.888Z,1.10
2019-04-25T13:33:24.933Z,0.90
2019-04-25T13:34:36.129Z,1.10
2019-04-25T13:35:25.058Z,1.00
2019-04-25T13:36:24.996Z,1.00
2019-04-25T13:37:25.019Z,1.10
2019-04-25T13:38:25.076Z,1.10
2019-04-25T13:39:25.047Z,1.30
2019-04-25T13:40:25.070Z,1.20
2019-04-25T13:41:25.087Z,1.10
2019-04-25T13:42:25.162Z,1.20
2019-04-25T13:43:25.279Z,1.30
2019-04-25T13:44:25.258Z,1.10
2019-04-25T13:45:25.187Z,1.00
2019-04-25T13:46:27.299Z,0.90
2019-04-25T13:47:27.932Z,0.90
2019-04-25T13:48:26.551Z,0.90
2019-04-25T13:49:25.373Z,0.90
2019-04-25T13:50:26.091Z,0.90
2019-04-25T13:51:26.168Z,1.10
2019-04-25T13:52:25.348Z,0.90
2019-04-25T13:53:25.650Z,0.90
2019-04-25T13:54:25.406Z,1.10
2019-04-25T13:55:25.461Z,0.90
2019-04-25T13:56:26.544Z,1.00
2019-04-25T13:57:26.206Z,0.90
2019-04-25T13:58:25.568Z,0.80
2019-04-25T13:59:25.690Z,0.80
2019-04-25T14:00:26.187Z,1.00
2019-04-25T14:01:25.985Z,1.10
2019-04-25T14:02:25.583Z,0.90
2019-04-25T14:03:25.595Z,1.00
2019-04-25T14:04:26.973Z,0.80
2019-04-25T14:05:26.002Z,1.00
2019-04-25T14:06:26.224Z,0.90
2019-04-25T14:07:25.804Z,1.10
2019-04-25T14:08:26.935Z,1.10
2019-04-25T14:09:25.895Z,1.20
2019-04-25T14:10:26.514Z,1.20
2019-04-25T14:11:26.002Z,1.10
2019-04-25T14:12:26.901Z,1.00
2019-04-25T14:13:26.526Z,1.00
2019-04-25T14:14:26.758Z,1.10
2019-04-25T14:15:25.944Z,1.00
2019-04-25T14:16:26.768Z,0.80
2019-04-25T14:17:25.904Z,1.20
2019-04-25T14:18:26.538Z,0.80
2019-04-25T14:19:26.023Z,1.10
2019-04-25T14:20:26.530Z,0.90
2019-04-25T14:21:26.328Z,1.20
2019-04-25T14:22:26.066Z,1.20
2019-04-25T14:23:26.140Z,1.30
2019-04-25T14:24:29.537Z,1.00
2019-04-25T14:25:27.289Z,1.10
2019-04-25T14:26:27.040Z,1.00
2019-04-25T14:27:26.294Z,1.10
2019-04-25T14:28:29.354Z,1.10
2019-04-25T14:29:26.330Z,1.20
2019-04-25T14:30:26.328Z,1.00
2019-04-25T14:31:41.055Z,1.40
2019-04-25T14:32:28.689Z,1.30
2019-04-25T14:33:27.471Z,1.30
2019-04-25T14:34:26.574Z,1.20
2019-04-25T14:35:26.615Z,1.50
2019-04-25T14:36:27.396Z,1.40
2019-04-25T14:37:29.319Z,1.80
2019-04-25T14:38:26.609Z,1.90
2019-04-25T14:39:27.392Z,1.90
2019-04-25T14:40:27.028Z,1.90
2019-04-25T14:41:26.436Z,1.80
2019-04-25T14:42:26.538Z,1.50
2019-04-25T14:43:26.446Z,1.60
2019-04-25T14:44:26.539Z,1.60
2019-04-25T14:45:26.674Z,1.70
2019-04-25T14:46:26.624Z,2.00
2019-04-25T14:47:27.417Z,1.80
2019-04-25T14:48:27.224Z,1.40
2019-04-25T14:49:26.566Z,1.40
2019-04-25T14:50:27.151Z,1.40
2019-04-25T14:51:26.681Z,1.40
2019-04-25T14:52:26.654Z,1.30
2019-04-25T14:53:26.772Z,1.20
2019-04-25T14:54:27.010Z,1.50
2019-04-25T14:55:27.366Z,1.40
2019-04-25T14:56:26.716Z,1.30
2019-04-25T14:57:27.001Z,1.40
2019-04-25T14:58:26.808Z,1.10
2019-04-25T14:59:26.845Z,1.40
2019-04-25T15:00:26.950Z,1.20
2019-04-25T15:01:27.979Z,1.30
2019-04-25T15:02:27.777Z,1.10
2019-04-25T15:03:27.039Z,1.10
2019-04-25T15:04:27.828Z,1.20
2019-04-25T15:05:26.893Z,1.10
2019-04-25T15:06:27.673Z,1.10
2019-04-25T15:07:27.013Z,1.30
2019-04-25T15:08:27.048Z,1.20
2019-04-25T15:09:27.015Z,1.20
2019-04-25T15:10:27.021Z,1.00
2019-04-25T15:11:27.054Z,1.10
2019-04-25T15:12:27.097Z,1.30
2019-04-25T15:13:27.807Z,1.20
2019-04-25T15:14:27.100Z,1.10
2019-04-25T15:15:27.197Z,1.20
2019-04-25T15:16:27.253Z,1.20
2019-04-25T15:17:27.288Z,1.10
2019-04-25T15:18:27.185Z,1.10
2019-04-25T15:19:27.506Z,1.30
2019-04-25T15:20:28.034Z,1.10
2019-04-25T15:21:27.597Z,1.10
2019-04-25T15:22:27.951Z,1.20
2019-04-25T15:23:27.387Z,1.20
2019-04-25T15:24:27.328Z,1.20
2019-04-25T15:25:27.463Z,1.20
2019-04-25T15:26:27.433Z,1.30
2019-04-25T15:27:27.344Z,1.20
2019-04-25T15:28:27.559Z,1.20
2019-04-25T15:29:27.463Z,1.30
2019-04-25T15:30:29.280Z,1.20
2019-04-25T15:31:27.496Z,1.20
2019-04-25T15:32:27.580Z,1.30
2019-04-25T15:33:28.076Z,1.40
2019-04-25T15:34:27.685Z,1.40
2019-04-25T15:35:27.995Z,1.30
2019-04-25T15:36:28.467Z,1.30
2019-04-25T15:37:27.669Z,1.30
2019-04-25T15:38:27.622Z,1.30
2019-04-25T15:39:27.669Z,1.40
2019-04-25T15:40:27.676Z,1.30
2019-04-25T15:41:28.281Z,1.30
2019-04-25T15:42:27.725Z,1.50
2019-04-25T15:43:27.700Z,1.40
2019-04-25T15:44:27.766Z,1.40
2019-04-25T15:45:28.565Z,1.60
2019-04-25T15:46:27.730Z,1.50
2019-04-25T15:47:27.817Z,1.40
2019-04-25T15:48:28.838Z,1.40
2019-04-25T15:49:28.716Z,1.50
2019-04-25T15:50:27.818Z,1.40
2019-04-25T15:51:27.933Z,1.30
2019-04-25T15:52:27.884Z,1.30
2019-04-25T15:53:28.603Z,1.40
2019-04-25T15:54:27.935Z,1.20
2019-04-25T15:55:28.909Z,1.10
2019-04-25T15:56:28.631Z,1.20
2019-04-25T15:57:28.211Z,1.20
2019-04-25T15:58:28.077Z,1.60
2019-04-25T15:59:28.792Z,1.60
2019-04-25T16:00:28.452Z,1.50
2019-04-25T16:01:28.308Z,1.70
2019-04-25T16:02:28.798Z,2.00
2019-04-25T16:03:28.349Z,1.50
2019-04-25T16:04:28.230Z,1.40
2019-04-25T16:05:28.093Z,1.60
2019-04-25T16:06:28.239Z,1.50
2019-04-25T16:07:29.010Z,1.40
2019-04-25T16:08:28.794Z,1.60
2019-04-25T16:09:28.174Z,1.30
2019-04-25T16:10:28.405Z,1.30
2019-04-25T16:11:28.212Z,0.90
2019-04-25T16:12:28.723Z,1.20
2019-04-25T16:13:28.332Z,1.20
2019-04-25T16:14:28.366Z,1.10
2019-04-25T16:15:29.082Z,0.90
2019-04-25T16:16:28.432Z,0.90
2019-04-25T16:17:28.578Z,1.00
2019-04-25T16:18:28.478Z,1.00
2019-04-25T16:19:29.458Z,1.20
2019-04-25T16:20:29.504Z,0.90
2019-04-25T16:21:29.071Z,1.00
2019-04-25T16:22:29.054Z,1.20
2019-04-25T16:23:29.019Z,1.10
2019-04-25T16:24:29.124Z,1.00
2019-04-25T16:25:29.826Z,0.90
2019-04-25T16:26:29.457Z,1.10
2019-04-25T16:27:28.986Z,1.00
2019-04-25T16:28:30.315Z,0.80
2019-04-25T16:29:29.112Z,0.80
2019-04-25T16:30:29.514Z,1.00
2019-04-25T16:31:29.334Z,0.90
2019-04-25T16:32:29.212Z,0.80
2019-04-25T16:33:29.146Z,0.80
2019-04-25T16:34:29.589Z,0.80
2019-04-25T16:35:29.726Z,0.80
